Time;durP1;ratioP1;P1;durP2;ratioP2;P2;SDS_P1;SDS_P2;PMS_P1;PMS_P2;Temp;Humidity;BMP_temperature;BMP_pressure;BME280_temperature;BME280_humidity;BME280_pressure;Samples;Min_cycle;Max_cycle;Signal;HPM_P1;HPM_P2
2022/05/31 00:02:47;;;;;;;;;;;10.40;1.00;;;;;;10289488;28;85280;-48
2022/05/31 00:07:48;;;;;;;;;;;10.30;1.00;;;;;;10286595;28;85571;-48
2022/05/31 00:12:48;;;;;;;;;;;10.30;1.00;;;;;;10287612;28;84363;-49
2022/05/31 00:17:49;;;;;;;;;;;10.10;1.00;;;;;;10254202;28;85070;-51
2022/05/31 00:22:50;;;;;;;;;;;10.10;1.00;;;;;;10271216;28;86011;-50
2022/05/31 00:27:51;;;;;;;;;;;10.00;1.00;;;;;;10287686;28;84248;-49
2022/05/31 00:32:51;;;;;;;;;;;9.90;1.00;;;;;;10267613;28;86841;-49
2022/05/31 00:37:52;;;;;;;;;;;9.90;1.00;;;;;;10238441;28;87052;-51
2022/05/31 00:42:54;;;;;;;;;;;9.90;1.00;;;;;;10288185;28;85240;-48
2022/05/31 00:47:55;;;;;;;;;;;9.90;1.00;;;;;;10287918;28;84162;-53
2022/05/31 00:52:58;;;;;;;;;;;9.80;1.00;;;;;;10270650;28;86283;-50
2022/05/31 00:58:02;;;;;;;;;;;9.80;1.00;;;;;;10243936;28;86943;-48
2022/05/31 01:03:04;;;;;;;;;;;9.70;1.00;;;;;;10247386;28;84928;-50
2022/05/31 01:08:05;;;;;;;;;;;9.60;1.00;;;;;;10229412;28;85971;-54
2022/05/31 01:13:18;;;;;;;;;;;9.60;1.00;;;;;;10242452;28;84958;-54
2022/05/31 01:18:38;;;;;;;;;;;9.50;1.00;;;;;;10287791;28;84248;-51
2022/05/31 01:24:08;;;;;;;;;;;9.50;1.00;;;;;;10266552;28;84624;-52
2022/05/31 01:29:13;;;;;;;;;;;9.50;1.00;;;;;;10285162;28;84892;-51
2022/05/31 01:34:28;;;;;;;;;;;9.50;1.00;;;;;;10268873;28;86025;-54
2022/05/31 01:39:37;;;;;;;;;;;9.40;1.00;;;;;;10269373;28;86822;-52
2022/05/31 01:44:41;;;;;;;;;;;9.40;1.00;;;;;;10283232;28;85127;-52
2022/05/31 01:49:44;;;;;;;;;;;9.40;1.00;;;;;;10285411;28;84224;-51
2022/05/31 01:54:45;;;;;;;;;;;9.30;5.00;;;;;;10286702;28;84018;-51
2022/05/31 01:59:48;;;;;;;;;;;9.30;11.30;;;;;;10267455;28;86058;-48
2022/05/31 02:04:49;;;;;;;;;;;9.20;22.50;;;;;;10268560;28;86887;-49
2022/05/31 02:09:51;;;;;;;;;;;9.20;21.60;;;;;;10266986;28;85755;-53
2022/05/31 02:14:59;;;;;;;;;;;9.20;29.20;;;;;;10268412;28;87079;-51
2022/05/31 02:19:59;;;;;;;;;;;9.00;47.20;;;;;;10267171;28;86372;-53
2022/05/31 02:25:08;;;;;;;;;;;9.00;69.30;;;;;;10268148;28;85734;-52
2022/05/31 02:30:09;;;;;;;;;;;8.90;74.20;;;;;;10266404;28;86022;-50
2022/05/31 02:35:10;;;;;;;;;;;8.90;89.60;;;;;;10272878;28;85681;-54
2022/05/31 02:40:12;;;;;;;;;;;8.80;99.90;;;;;;10271692;28;86112;-51
2022/05/31 02:45:13;;;;;;;;;;;8.70;99.90;;;;;;10274227;28;86927;-51
2022/05/31 02:50:13;;;;;;;;;;;8.70;99.90;;;;;;10351885;22;86742;-54
2022/05/31 02:55:14;;;;;;;;;;;8.60;99.90;;;;;;10378695;28;86880;-55
2022/05/31 03:00:33;;;;;;;;;;;8.60;99.90;;;;;;10371615;28;84253;-57
2022/05/31 03:05:52;;;;;;;;;;;8.60;99.90;;;;;;10381790;28;84332;-59
2022/05/31 03:11:02;;;;;;;;;;;8.50;99.90;;;;;;10366887;28;85731;-58
2022/05/31 03:16:03;;;;;;;;;;;8.50;99.90;;;;;;10372851;28;84926;-54
2022/05/31 03:21:16;;;;;;;;;;;8.50;99.90;;;;;;10346268;28;86037;-53
2022/05/31 03:26:17;;;;;;;;;;;8.40;99.90;;;;;;10352837;28;85050;-55
2022/05/31 03:31:18;;;;;;;;;;;8.30;99.90;;;;;;10369276;28;84823;-55
2022/05/31 03:36:20;;;;;;;;;;;8.40;99.90;;;;;;10352269;28;86126;-55
2022/05/31 03:41:34;;;;;;;;;;;8.50;99.90;;;;;;10351330;28;86552;-54
2022/05/31 03:46:35;;;;;;;;;;;8.40;99.90;;;;;;10367012;28;84263;-51
2022/05/31 03:52:02;;;;;;;;;;;8.50;99.90;;;;;;10365565;28;84834;-55
2022/05/31 03:57:12;;;;;;;;;;;8.50;99.90;;;;;;10351742;28;85693;-56
2022/05/31 04:02:14;;;;;;;;;;;8.50;99.90;;;;;;10351307;28;84996;-55
2022/05/31 04:07:14;;;;;;;;;;;8.50;99.90;;;;;;10351825;28;86066;-57
2022/05/31 04:12:15;;;;;;;;;;;8.50;99.90;;;;;;10353635;28;86759;-57
2022/05/31 04:17:34;;;;;;;;;;;8.50;99.90;;;;;;10371548;28;84135;-53
2022/05/31 04:22:35;;;;;;;;;;;8.50;99.90;;;;;;10338048;28;86941;-54
2022/05/31 04:27:54;;;;;;;;;;;8.50;99.90;;;;;;10369284;28;84039;-52
2022/05/31 04:33:27;;;;;;;;;;;8.60;99.90;;;;;;10326847;28;84751;-54
2022/05/31 04:38:28;;;;;;;;;;;8.70;99.90;;;;;;10350297;28;86026;-55
2022/05/31 04:43:33;;;;;;;;;;;8.80;99.90;;;;;;10359974;28;86708;-53
2022/05/31 04:48:48;;;;;;;;;;;8.90;99.90;;;;;;10345505;28;85848;-52
2022/05/31 04:53:49;;;;;;;;;;;9.10;99.50;;;;;;10352758;28;86805;-53
2022/05/31 04:59:00;;;;;;;;;;;9.30;84.90;;;;;;10346859;28;86680;-57
2022/05/31 05:04:01;;;;;;;;;;;9.50;22.90;;;;;;10353670;28;86130;-54
2022/05/31 05:09:04;;;;;;;;;;;9.60;14.60;;;;;;10351331;28;85801;-57
2022/05/31 05:14:04;;;;;;;;;;;9.80;1.00;;;;;;10350145;28;85940;-51
2022/05/31 05:19:27;;;;;;;;;;;10.00;1.00;;;;;;10347875;28;87017;-57
2022/05/31 05:24:32;;;;;;;;;;;10.20;1.00;;;;;;10349838;28;86073;-55
2022/05/31 05:35:19;;;;;;;;;;;10.40;1.00;;;;;;10349631;28;86736;-53
2022/05/31 05:40:28;;;;;;;;;;;10.60;1.00;;;;;;10346379;28;85667;-53
2022/05/31 05:45:38;;;;;;;;;;;10.80;1.00;;;;;;10348532;28;86784;-57
2022/05/31 05:50:40;;;;;;;;;;;10.90;1.00;;;;;;10368764;28;84894;-56
2022/05/31 05:55:40;;;;;;;;;;;10.90;1.00;;;;;;10365235;28;84285;-54
2022/05/31 06:01:18;;;;;;;;;;;11.10;1.00;;;;;;10365262;28;84624;-55
2022/05/31 06:06:31;;;;;;;;;;;11.10;1.00;;;;;;10356208;28;86736;-54
2022/05/31 06:11:32;;;;;;;;;;;11.30;1.00;;;;;;10372624;28;84996;-55
2022/05/31 06:16:34;;;;;;;;;;;11.20;1.00;;;;;;10355184;28;87134;-55
2022/05/31 06:21:35;;;;;;;;;;;11.40;1.00;;;;;;10355883;28;86125;-54
2022/05/31 06:26:47;;;;;;;;;;;11.60;1.00;;;;;;10355678;28;86838;-53
2022/05/31 06:31:48;;;;;;;;;;;12.00;1.00;;;;;;10354423;28;87272;-53
2022/05/31 06:37:01;;;;;;;;;;;12.40;1.00;;;;;;10354783;28;86896;-57
2022/05/31 06:42:02;;;;;;;;;;;12.50;1.00;;;;;;10355286;28;86068;-54
2022/05/31 06:47:29;;;;;;;;;;;12.90;1.00;;;;;;10366109;28;84525;-55
2022/05/31 06:58:51;;;;;;;;;;;13.10;1.00;;;;;;10372125;28;85659;-52
2022/05/31 07:03:52;;;;;;;;;;;13.30;1.00;;;;;;10354636;28;84550;-57
2022/05/31 07:08:53;;;;;;;;;;;13.40;1.00;;;;;;10351829;28;86061;-55
2022/05/31 07:14:03;;;;;;;;;;;13.20;1.00;;;;;;10349060;28;86678;-57
2022/05/31 07:19:06;;;;;;;;;;;13.20;1.00;;;;;;10369442;28;84346;-56
2022/05/31 07:24:14;;;;;;;;;;;13.20;1.00;;;;;;10351967;28;85930;-51
2022/05/31 07:29:35;;;;;;;;;;;13.30;1.00;;;;;;10364234;28;85393;-55
2022/05/31 07:34:36;;;;;;;;;;;13.30;1.00;;;;;;10346979;28;85822;-58
2022/05/31 07:39:37;;;;;;;;;;;13.20;1.00;;;;;;10366830;28;84094;-56
2022/05/31 07:44:37;;;;;;;;;;;13.40;1.00;;;;;;10347098;28;86782;-54
2022/05/31 07:49:38;;;;;;;;;;;13.40;1.00;;;;;;10331793;28;86836;-55
2022/05/31 07:55:08;;;;;;;;;;;13.40;1.00;;;;;;10344864;28;84788;-56
2022/05/31 08:00:27;;;;;;;;;;;13.40;1.00;;;;;;10366654;28;84261;-57
2022/05/31 08:05:30;;;;;;;;;;;13.70;1.00;;;;;;10346379;28;86330;-57
2022/05/31 08:10:31;;;;;;;;;;;14.00;1.00;;;;;;10366686;28;84316;-57
2022/05/31 08:15:31;;;;;;;;;;;14.30;1.00;;;;;;10366577;28;85619;-57
2022/05/31 08:20:32;;;;;;;;;;;14.60;1.00;;;;;;10365041;28;84954;-55
2022/05/31 08:25:36;;;;;;;;;;;14.70;1.00;;;;;;10366854;28;84310;-55
2022/05/31 08:30:36;;;;;;;;;;;14.70;1.00;;;;;;10364199;28;84670;-57
2022/05/31 08:35:37;;;;;;;;;;;14.80;1.00;;;;;;10363927;28;84144;-55
2022/05/31 08:40:42;;;;;;;;;;;14.80;1.00;;;;;;10367458;28;84153;-53
2022/05/31 08:45:50;;;;;;;;;;;14.70;1.00;;;;;;10362793;28;84304;-56
2022/05/31 09:01:48;;;;;;;;;;;14.90;99.90;;;;;;10280481;28;85556;-47
2022/05/31 09:06:54;;;;;;;;;;;14.70;99.90;;;;;;10285901;28;84863;-46
2022/05/31 09:12:01;;;;;;;;;;;14.60;99.90;;;;;;10280101;28;86309;-45
2022/05/31 09:17:04;;;;;;;;;;;14.50;99.90;;;;;;10283216;28;87562;-46
2022/05/31 09:22:07;;;;;;;;;;;14.60;99.90;;;;;;10288353;28;84812;-48
2022/05/31 09:27:14;;;;;;;;;;;14.40;99.90;;;;;;10310861;28;105004;-46
2022/05/31 09:32:18;;;;;;;;;;;14.40;99.90;;;;;;10314217;28;84349;-48
2022/05/31 09:37:30;;;;;;;;;;;14.30;99.90;;;;;;10315643;28;84585;-47
2022/05/31 09:42:44;;;;;;;;;;;14.30;1.00;;;;;;10303383;28;84225;-45
2022/05/31 09:47:45;;;;;;;;;;;14.30;1.00;;;;;;10303650;28;86233;-46
2022/05/31 09:52:47;;;;;;;;;;;14.40;1.00;;;;;;10317796;28;84956;-47
2022/05/31 09:57:50;;;;;;;;;;;14.50;1.00;;;;;;10318725;28;84950;-46
2022/05/31 10:03:20;;;;;;;;;;;14.50;99.90;;;;;;10274367;28;84703;-45
2022/05/31 10:08:32;;;;;;;;;;;14.60;99.90;;;;;;10280495;28;84902;-47
2022/05/31 10:13:40;;;;;;;;;;;14.60;99.90;;;;;;10281933;28;84946;-46
2022/05/31 10:18:49;;;;;;;;;;;14.50;1.00;;;;;;10276657;28;85142;-46
2022/05/31 10:23:50;;;;;;;;;;;14.40;1.00;;;;;;10273700;28;84843;-49
2022/05/31 10:29:29;;;;;;;;;;;14.80;1.00;;;;;;10280258;28;85611;-48
2022/05/31 10:34:44;;;;;;;;;;;15.10;1.00;;;;;;10265578;28;86029;-50
2022/05/31 10:39:58;;;;;;;;;;;15.70;1.00;;;;;;10275482;28;84329;-47
2022/05/31 10:45:02;;;;;;;;;;;16.70;99.90;;;;;;10278211;28;86555;-46
2022/05/31 10:50:07;;;;;;;;;;;17.20;1.00;;;;;;10280511;28;84461;-49
2022/05/31 10:55:28;;;;;;;;;;;17.70;99.90;;;;;;10269986;28;86360;-47
2022/05/31 11:00:32;;;;;;;;;;;19.10;99.90;;;;;;10287613;28;84122;-52
2022/05/31 11:05:50;;;;;;;;;;;19.40;1.00;;;;;;10287132;28;86040;-47
2022/05/31 11:16:20;;;;;;;;;;;18.50;1.00;;;;;;10286720;28;84917;-49
2022/05/31 11:21:39;;;;;;;;;;;18.10;1.00;;;;;;10288429;28;84244;-47
2022/05/31 11:26:46;;;;;;;;;;;17.80;1.00;;;;;;10269306;28;85534;-47
2022/05/31 11:32:03;;;;;;;;;;;17.60;99.90;;;;;;10293388;28;84999;-47
2022/05/31 11:37:23;;;;;;;;;;;17.70;1.00;;;;;;10301141;28;84874;-46
2022/05/31 11:42:23;;;;;;;;;;;17.40;1.00;;;;;;10283216;28;85168;-46
2022/05/31 11:47:38;;;;;;;;;;;17.30;1.00;;;;;;10289126;28;84976;-51
2022/05/31 11:52:53;;;;;;;;;;;16.80;75.20;;;;;;10290406;28;84918;-46
2022/05/31 11:57:54;;;;;;;;;;;17.10;1.00;;;;;;10268361;28;84935;-47
2022/05/31 12:03:03;;;;;;;;;;;18.30;1.00;;;;;;10285605;28;84466;-48
2022/05/31 12:08:11;;;;;;;;;;;18.80;99.90;;;;;;10295657;28;85697;-48
2022/05/31 12:13:12;;;;;;;;;;;20.10;1.00;;;;;;10287150;28;84544;-49
2022/05/31 12:18:22;;;;;;;;;;;20.50;1.00;;;;;;10290984;28;86633;-49
2022/05/31 12:23:42;;;;;;;;;;;21.20;99.90;;;;;;10282409;28;84915;-46
2022/05/31 12:28:47;;;;;;;;;;;22.70;1.00;;;;;;10285401;28;84100;-49
2022/05/31 12:33:48;;;;;;;;;;;22.70;1.00;;;;;;10288763;28;85085;-49
2022/05/31 12:38:55;;;;;;;;;;;24.20;1.00;;;;;;10287267;28;84217;-49
2022/05/31 12:43:58;;;;;;;;;;;23.70;1.00;;;;;;10279970;28;84940;-50
2022/05/31 12:49:00;;;;;;;;;;;24.00;1.00;;;;;;10290215;28;84295;-46
2022/05/31 12:54:04;;;;;;;;;;;24.40;1.00;;;;;;10292575;28;85275;-45
2022/05/31 12:59:06;;;;;;;;;;;25.10;99.90;;;;;;10284991;28;84678;-47
2022/05/31 13:04:07;;;;;;;;;;;25.30;99.90;;;;;;10284348;28;86789;-47
2022/05/31 13:09:12;;;;;;;;;;;25.60;99.90;;;;;;10285800;28;85530;-47
2022/05/31 13:19:37;;;;;;;;;;;25.20;99.90;;;;;;10283519;28;84224;-47
2022/05/31 13:24:43;;;;;;;;;;;26.10;99.90;;;;;;10283615;28;86989;-48
2022/05/31 13:29:44;;;;;;;;;;;27.20;99.90;;;;;;10287866;28;85141;-47
2022/05/31 13:34:49;;;;;;;;;;;26.70;99.90;;;;;;10294318;28;86116;-45
2022/05/31 13:39:50;;;;;;;;;;;27.50;71.50;;;;;;10283127;28;86100;-50
2022/05/31 13:44:51;;;;;;;;;;;27.00;59.90;;;;;;10287754;28;84416;-49
2022/05/31 13:49:51;;;;;;;;;;;26.30;4.60;;;;;;10283754;28;85006;-48
2022/05/31 13:54:53;;;;;;;;;;;24.60;1.00;;;;;;10290577;28;84358;-47
2022/05/31 13:59:55;;;;;;;;;;;24.50;1.00;;;;;;10274628;28;85220;-46
2022/05/31 14:04:58;;;;;;;;;;;24.30;23.10;;;;;;10282313;28;84356;-48
2022/05/31 14:10:00;;;;;;;;;;;23.80;16.00;;;;;;10281664;28;86246;-48
2022/05/31 14:15:01;;;;;;;;;;;23.30;13.40;;;;;;10283206;28;84924;-46
2022/05/31 14:20:03;;;;;;;;;;;22.70;10.30;;;;;;10282834;28;84853;-47
2022/05/31 14:25:06;;;;;;;;;;;22.40;18.70;;;;;;10283951;28;83995;-47
2022/05/31 14:30:15;;;;;;;;;;;22.10;1.00;;;;;;10284671;28;85206;-48
2022/05/31 14:35:23;;;;;;;;;;;21.80;1.00;;;;;;10289625;28;84762;-46
2022/05/31 14:40:30;;;;;;;;;;;21.60;1.00;;;;;;10292012;28;87018;-47
2022/05/31 14:45:37;;;;;;;;;;;21.80;1.00;;;;;;10292273;28;84996;-49
2022/05/31 14:50:38;;;;;;;;;;;21.60;1.00;;;;;;10356740;22;85980;-52
2022/05/31 14:55:45;;;;;;;;;;;21.50;1.00;;;;;;10364447;28;85563;-49
2022/05/31 15:00:49;;;;;;;;;;;21.20;1.00;;;;;;10376885;28;84131;-50
2022/05/31 15:05:57;;;;;;;;;;;21.00;1.00;;;;;;10352461;28;86292;-50
2022/05/31 15:18:56;;;;;;;;;;;20.70;1.00;;;;;;10375585;28;84247;-50
2022/05/31 15:21:39;;;;;;;;;;;20.20;1.00;;;;;;10370656;28;84922;-51
2022/05/31 15:26:39;;;;;;;;;;;19.90;1.00;;;;;;10370576;28;84156;-49
2022/05/31 15:31:40;;;;;;;;;;;19.60;1.00;;;;;;10369803;28;84158;-51
2022/05/31 15:36:42;;;;;;;;;;;19.40;1.00;;;;;;10352582;28;86914;-54
2022/05/31 15:41:42;;;;;;;;;;;19.30;1.00;;;;;;10347834;28;84256;-53
2022/05/31 15:46:43;;;;;;;;;;;19.20;1.00;;;;;;10370121;28;84160;-48
2022/05/31 15:51:44;;;;;;;;;;;19.00;28.60;;;;;;10369018;28;85145;-47
2022/05/31 15:56:45;;;;;;;;;;;18.90;34.80;;;;;;10365543;28;84708;-45
2022/05/31 16:01:46;;;;;;;;;;;18.80;42.10;;;;;;10338497;28;84593;-48
2022/05/31 16:06:47;;;;;;;;;;;18.80;33.50;;;;;;10362687;28;84879;-50
2022/05/31 16:11:48;;;;;;;;;;;18.90;77.40;;;;;;10327492;28;86042;-51
2022/05/31 16:16:49;;;;;;;;;;;18.80;99.90;;;;;;10311657;28;84800;-51
2022/05/31 16:21:50;;;;;;;;;;;18.90;99.90;;;;;;10304839;28;85394;-48
2022/05/31 16:26:52;;;;;;;;;;;18.80;99.90;;;;;;10327217;28;84376;-51
2022/05/31 16:31:52;;;;;;;;;;;18.80;99.90;;;;;;10327047;28;86512;-51
2022/05/31 16:36:54;;;;;;;;;;;18.60;99.90;;;;;;10324788;28;85800;-50
2022/05/31 16:41:56;;;;;;;;;;;18.60;99.90;;;;;;10344282;28;84921;-46
2022/05/31 16:46:57;;;;;;;;;;;18.50;99.90;;;;;;10326345;28;84243;-51
2022/05/31 16:51:57;;;;;;;;;;;18.60;99.90;;;;;;10331451;28;85965;-51
2022/05/31 16:57:04;;;;;;;;;;;18.50;99.90;;;;;;10348905;28;84909;-52
2022/05/31 17:02:06;;;;;;;;;;;18.50;99.90;;;;;;10368371;28;84349;-52
2022/05/31 17:17:47;;;;;;;;;;;17.90;1.00;;;;;;10367770;28;83983;-61
2022/05/31 17:22:47;;;;;;;;;;;18.10;1.00;;;;;;10368201;28;84932;-46
2022/05/31 17:27:48;;;;;;;;;;;18.10;1.00;;;;;;10367787;28;85247;-47
2022/05/31 17:32:49;;;;;;;;;;;18.30;1.00;;;;;;10370077;28;84859;-52
2022/05/31 17:37:51;;;;;;;;;;;18.30;1.00;;;;;;10349191;28;86618;-49
2022/05/31 17:42:52;;;;;;;;;;;18.30;1.00;;;;;;10363154;28;84737;-54
2022/05/31 17:47:52;;;;;;;;;;;18.20;1.00;;;;;;10363969;28;84305;-50
2022/05/31 17:52:53;;;;;;;;;;;18.30;1.00;;;;;;10373308;28;85019;-61
2022/05/31 17:57:53;;;;;;;;;;;18.30;1.00;;;;;;10345798;28;84272;-62
2022/05/31 18:02:54;;;;;;;;;;;18.10;1.00;;;;;;10369258;28;84342;-56
2022/05/31 18:07:55;;;;;;;;;;;18.00;1.00;;;;;;10368816;28;84199;-61
2022/05/31 18:12:56;;;;;;;;;;;17.90;1.00;;;;;;10369261;28;84239;-55
2022/05/31 18:17:58;;;;;;;;;;;17.70;1.00;;;;;;10368143;28;84603;-59
2022/05/31 18:22:58;;;;;;;;;;;17.50;1.00;;;;;;10373333;28;84768;-52
2022/05/31 18:33:19;;;;;;;;;;;17.50;1.00;;;;;;10366830;28;85058;-50
2022/05/31 18:38:33;;;;;;;;;;;17.50;1.00;;;;;;10362161;28;85431;-56
2022/05/31 18:43:33;;;;;;;;;;;17.30;1.00;;;;;;10363684;28;85180;-60
2022/05/31 18:48:34;;;;;;;;;;;17.20;17.40;;;;;;10363789;28;84190;-56
2022/05/31 18:53:36;;;;;;;;;;;17.00;12.90;;;;;;10349655;28;86135;-50
2022/05/31 18:58:38;;;;;;;;;;;17.10;1.00;;;;;;10344227;28;84348;-52
2022/05/31 19:03:40;;;;;;;;;;;17.00;1.00;;;;;;10346117;28;84272;-59
2022/05/31 19:08:40;;;;;;;;;;;16.80;1.00;;;;;;10363482;28;85045;-61
2022/05/31 19:13:43;;;;;;;;;;;16.70;1.00;;;;;;10358293;28;84779;-50
2022/05/31 19:18:45;;;;;;;;;;;16.50;17.70;;;;;;10354528;28;86595;-50
2022/05/31 19:23:48;;;;;;;;;;;16.40;73.90;;;;;;10355483;28;85886;-46
2022/05/31 19:28:49;;;;;;;;;;;16.40;99.90;;;;;;10354845;28;84108;-50
2022/05/31 19:33:53;;;;;;;;;;;16.40;99.90;;;;;;10371694;28;85050;-46
2022/05/31 19:38:55;;;;;;;;;;;16.40;99.90;;;;;;10357623;28;85361;-54
2022/05/31 19:43:56;;;;;;;;;;;16.30;99.90;;;;;;10370669;28;86348;-51
2022/05/31 19:48:56;;;;;;;;;;;16.20;1.00;;;;;;10370718;28;84197;-54
2022/05/31 19:53:57;;;;;;;;;;;16.10;1.00;;;;;;10352535;28;84692;-52
2022/05/31 19:58:57;;;;;;;;;;;16.00;1.00;;;;;;10370049;28;84765;-49
2022/05/31 20:03:59;;;;;;;;;;;15.90;1.00;;;;;;10351852;28;84944;-51
2022/05/31 20:14:22;;;;;;;;;;;15.90;99.90;;;;;;10366871;28;84632;-48
2022/05/31 20:19:36;;;;;;;;;;;15.90;99.90;;;;;;10367451;28;85140;-49
2022/05/31 20:24:36;;;;;;;;;;;15.90;1.00;;;;;;10348841;28;85884;-49
2022/05/31 20:29:37;;;;;;;;;;;15.80;99.90;;;;;;10362937;28;84735;-53
2022/05/31 20:34:38;;;;;;;;;;;15.70;99.90;;;;;;10366817;28;84200;-55
2022/05/31 20:39:41;;;;;;;;;;;15.60;35.00;;;;;;10351198;28;86729;-51
2022/05/31 20:44:41;;;;;;;;;;;15.50;1.00;;;;;;10363478;28;86221;-54
2022/05/31 20:49:42;;;;;;;;;;;15.40;99.90;;;;;;10332363;22;84795;-60
2022/05/31 20:54:43;;;;;;;;;;;15.30;1.00;;;;;;10304258;28;84392;-58
2022/05/31 20:59:44;;;;;;;;;;;15.30;52.40;;;;;;10254754;28;84112;-62
2022/05/31 21:04:44;;;;;;;;;;;15.10;1.00;;;;;;10222765;28;84895;-59
2022/05/31 21:09:45;;;;;;;;;;;15.00;1.00;;;;;;10234935;28;86092;-60
2022/05/31 21:14:46;;;;;;;;;;;14.80;84.20;;;;;;10267097;28;85156;-59
2022/05/31 21:19:47;;;;;;;;;;;14.70;1.00;;;;;;10244336;28;85722;-61
2022/05/31 21:24:48;;;;;;;;;;;14.50;1.00;;;;;;10242439;28;84945;-59
2022/05/31 21:29:50;;;;;;;;;;;14.30;1.00;;;;;;10245206;28;85016;-59
2022/05/31 21:34:52;;;;;;;;;;;13.80;1.00;;;;;;10245652;28;84299;-60
2022/05/31 21:45:14;;;;;;;;;;;13.20;18.90;;;;;;10243074;28;85259;-59
2022/05/31 21:50:14;;;;;;;;;;;13.20;25.50;;;;;;10261030;28;84133;-61
2022/05/31 21:55:24;;;;;;;;;;;13.20;1.00;;;;;;10289169;28;84983;-61
2022/05/31 22:00:43;;;;;;;;;;;13.20;1.00;;;;;;10286565;28;84231;-58
2022/05/31 22:05:44;;;;;;;;;;;13.10;1.00;;;;;;10287636;28;84197;-58
2022/05/31 22:10:44;;;;;;;;;;;13.20;1.00;;;;;;10275165;28;84468;-59
2022/05/31 22:15:45;;;;;;;;;;;13.30;1.00;;;;;;10286037;28;84240;-62
2022/05/31 22:20:46;;;;;;;;;;;13.20;1.00;;;;;;10283894;28;84968;-61
2022/05/31 22:25:46;;;;;;;;;;;13.10;1.00;;;;;;10279880;28;84325;-58
2022/05/31 22:30:47;;;;;;;;;;;12.90;24.20;;;;;;10268347;28;86003;-58
2022/05/31 22:35:49;;;;;;;;;;;12.80;82.60;;;;;;10269290;28;87122;-59
2022/05/31 22:40:50;;;;;;;;;;;12.60;72.50;;;;;;10286243;28;84330;-59
2022/05/31 22:45:51;;;;;;;;;;;12.50;99.90;;;;;;10280674;28;84877;-59
2022/05/31 22:50:51;;;;;;;;;;;12.40;99.90;;;;;;10273750;28;84251;-61
2022/05/31 22:55:53;;;;;;;;;;;12.40;99.90;;;;;;10294023;28;84155;-61
2022/05/31 23:00:54;;;;;;;;;;;12.30;99.90;;;;;;10276522;28;84768;-60
2022/05/31 23:05:56;;;;;;;;;;;12.30;95.40;;;;;;10292694;28;85160;-61
2022/05/31 23:10:56;;;;;;;;;;;12.30;99.90;;;;;;10291847;28;84192;-59
2022/05/31 23:15:59;;;;;;;;;;;12.30;97.70;;;;;;10292463;28;84114;-59
2022/05/31 23:21:02;;;;;;;;;;;12.20;99.90;;;;;;10292159;28;86662;-58
2022/05/31 23:26:03;;;;;;;;;;;12.10;99.90;;;;;;10292356;28;84979;-60
2022/05/31 23:31:06;;;;;;;;;;;12.10;99.90;;;;;;10272510;28;84951;-59
2022/05/31 23:36:06;;;;;;;;;;;12.00;99.90;;;;;;10292518;28;84153;-62
2022/05/31 23:41:07;;;;;;;;;;;12.00;99.90;;;;;;10291510;28;84357;-61
2022/05/31 23:46:08;;;;;;;;;;;12.00;99.90;;;;;;10291956;28;84977;-62
2022/05/31 23:51:09;;;;;;;;;;;12.00;99.90;;;;;;10284487;28;85929;-60
2022/05/31 23:56:10;;;;;;;;;;;11.90;99.90;;;;;;10254844;28;84857;-63
